sensor_id;sensor_type;location;lat;lon;timestamp;temperature;humidity
10010;DHT22;5044;48.652;9.250;2022-07-04T00:01:41;20.40;98.50
10010;DHT22;5044;48.652;9.250;2022-07-04T00:04:08;20.40;99.20
10010;DHT22;5044;48.652;9.250;2022-07-04T00:06:35;20.30;99.60
10010;DHT22;5044;48.652;9.250;2022-07-04T00:09:02;20.30;99.70
10010;DHT22;5044;48.652;9.250;2022-07-04T00:11:29;20.20;99.90
10010;DHT22;5044;48.652;9.250;2022-07-04T00:13:56;20.20;99.90
10010;DHT22;5044;48.652;9.250;2022-07-04T00:16:25;20.10;99.90
10010;DHT22;5044;48.652;9.250;2022-07-04T00:18:51;20.10;99.90
10010;DHT22;5044;48.652;9.250;2022-07-04T00:21:18;20.00;99.90
10010;DHT22;5044;48.652;9.250;2022-07-04T00:23:45;20.00;99.90
10010;DHT22;5044;48.652;9.250;2022-07-04T00:26:12;19.90;99.90
10010;DHT22;5044;48.652;9.250;2022-07-04T00:28:39;19.90;99.90
10010;DHT22;5044;48.652;9.250;2022-07-04T00:31:06;19.90;99.90
10010;DHT22;5044;48.652;9.250;2022-07-04T00:33:34;19.80;99.90
10010;DHT22;5044;48.652;9.250;2022-07-04T00:36:01;19.80;99.90
10010;DHT22;5044;48.652;9.250;2022-07-04T00:38:28;19.80;99.90
10010;DHT22;5044;48.652;9.250;2022-07-04T00:40:55;19.70;99.90
10010;DHT22;5044;48.652;9.250;2022-07-04T00:43:23;19.80;99.90
10010;DHT22;5044;48.652;9.250;2022-07-04T00:45:50;19.70;99.90
10010;DHT22;5044;48.652;9.250;2022-07-04T00:48:17;19.70;99.90
10010;DHT22;5044;48.652;9.250;2022-07-04T00:50:47;19.70;99.90
10010;DHT22;5044;48.652;9.250;2022-07-04T00:53:14;19.70;99.90
10010;DHT22;5044;48.652;9.250;2022-07-04T00:55:42;19.70;99.90
10010;DHT22;5044;48.652;9.250;2022-07-04T00:58:13;19.60;99.90
10010;DHT22;5044;48.652;9.250;2022-07-04T01:00:40;19.60;99.90
10010;DHT22;5044;48.652;9.250;2022-07-04T01:03:07;19.60;99.90
10010;DHT22;5044;48.652;9.250;2022-07-04T01:05:34;19.60;99.90
10010;DHT22;5044;48.652;9.250;2022-07-04T01:08:03;19.60;99.90
10010;DHT22;5044;48.652;9.250;2022-07-04T01:10:31;19.50;99.90
10010;DHT22;5044;48.652;9.250;2022-07-04T01:12:58;19.50;99.90
10010;DHT22;5044;48.652;9.250;2022-07-04T01:15:24;19.50;99.90
10010;DHT22;5044;48.652;9.250;2022-07-04T01:17:51;19.50;99.90
10010;DHT22;5044;48.652;9.250;2022-07-04T01:20:19;19.50;99.90
10010;DHT22;5044;48.652;9.250;2022-07-04T01:22:48;19.40;99.90
10010;DHT22;5044;48.652;9.250;2022-07-04T01:25:15;19.40;99.90
10010;DHT22;5044;48.652;9.250;2022-07-04T01:27:41;19.40;99.90
10010;DHT22;5044;48.652;9.250;2022-07-04T01:30:09;19.40;99.90
10010;DHT22;5044;48.652;9.250;2022-07-04T01:32:36;19.40;99.90
10010;DHT22;5044;48.652;9.250;2022-07-04T01:35:04;19.40;99.90
10010;DHT22;5044;48.652;9.250;2022-07-04T01:37:32;19.40;99.90
10010;DHT22;5044;48.652;9.250;2022-07-04T01:39:59;19.40;99.90
10010;DHT22;5044;48.652;9.250;2022-07-04T01:42:26;19.40;99.40
10010;DHT22;5044;48.652;9.250;2022-07-04T01:44:53;19.40;99.70
10010;DHT22;5044;48.652;9.250;2022-07-04T01:47:19;19.40;99.40
10010;DHT22;5044;48.652;9.250;2022-07-04T01:49:46;19.40;98.00
10010;DHT22;5044;48.652;9.250;2022-07-04T01:52:13;19.40;98.90
10010;DHT22;5044;48.652;9.250;2022-07-04T01:54:42;19.40;98.30
10010;DHT22;5044;48.652;9.250;2022-07-04T01:57:09;19.40;99.40
10010;DHT22;5044;48.652;9.250;2022-07-04T01:59:38;19.40;99.90
10010;DHT22;5044;48.652;9.250;2022-07-04T02:02:22;19.40;98.40
10010;DHT22;5044;48.652;9.250;2022-07-04T02:04:49;19.40;97.30
10010;DHT22;5044;48.652;9.250;2022-07-04T02:07:17;19.40;98.00
10010;DHT22;5044;48.652;9.250;2022-07-04T02:09:45;19.30;99.90
10010;DHT22;5044;48.652;9.250;2022-07-04T02:12:15;19.30;98.90
10010;DHT22;5044;48.652;9.250;2022-07-04T02:15:11;19.30;99.90
10010;DHT22;5044;48.652;9.250;2022-07-04T02:17:37;19.30;99.00
10010;DHT22;5044;48.652;9.250;2022-07-04T02:20:05;19.30;98.50
10010;DHT22;5044;48.652;9.250;2022-07-04T02:22:32;19.30;98.80
10010;DHT22;5044;48.652;9.250;2022-07-04T02:25:00;19.30;98.00
10010;DHT22;5044;48.652;9.250;2022-07-04T02:27:29;19.30;97.00
10010;DHT22;5044;48.652;9.250;2022-07-04T02:29:56;19.30;99.90
10010;DHT22;5044;48.652;9.250;2022-07-04T02:32:22;19.20;99.90
10010;DHT22;5044;48.652;9.250;2022-07-04T02:34:49;19.20;98.00
10010;DHT22;5044;48.652;9.250;2022-07-04T02:37:16;19.10;98.00
10010;DHT22;5044;48.652;9.250;2022-07-04T02:39:43;19.10;98.80
10010;DHT22;5044;48.652;9.250;2022-07-04T02:42:11;19.10;99.90
10010;DHT22;5044;48.652;9.250;2022-07-04T02:44:38;19.00;99.90
10010;DHT22;5044;48.652;9.250;2022-07-04T02:47:07;19.00;99.90
10010;DHT22;5044;48.652;9.250;2022-07-04T02:49:36;18.90;99.90
10010;DHT22;5044;48.652;9.250;2022-07-04T02:52:04;18.90;99.90
10010;DHT22;5044;48.652;9.250;2022-07-04T02:54:31;18.80;99.90
10010;DHT22;5044;48.652;9.250;2022-07-04T02:56:58;18.80;98.00
10010;DHT22;5044;48.652;9.250;2022-07-04T02:59:26;18.80;99.90
10010;DHT22;5044;48.652;9.250;2022-07-04T03:01:53;18.80;99.90
10010;DHT22;5044;48.652;9.250;2022-07-04T03:04:20;18.70;99.90
10010;DHT22;5044;48.652;9.250;2022-07-04T03:06:47;18.70;99.90
10010;DHT22;5044;48.652;9.250;2022-07-04T03:09:15;18.60;99.90
10010;DHT22;5044;48.652;9.250;2022-07-04T03:11:42;18.60;99.90
10010;DHT22;5044;48.652;9.250;2022-07-04T03:14:09;18.60;99.90
10010;DHT22;5044;48.652;9.250;2022-07-04T03:16:38;18.60;99.90
10010;DHT22;5044;48.652;9.250;2022-07-04T03:19:05;18.60;99.90
10010;DHT22;5044;48.652;9.250;2022-07-04T03:21:32;18.50;99.90
10010;DHT22;5044;48.652;9.250;2022-07-04T03:23:58;18.50;99.90
10010;DHT22;5044;48.652;9.250;2022-07-04T03:26:26;18.50;99.70
10010;DHT22;5044;48.652;9.250;2022-07-04T03:28:53;18.50;99.30
10010;DHT22;5044;48.652;9.250;2022-07-04T03:31:20;18.50;99.90
10010;DHT22;5044;48.652;9.250;2022-07-04T03:33:54;18.40;99.00
10010;DHT22;5044;48.652;9.250;2022-07-04T03:36:21;18.40;99.90
10010;DHT22;5044;48.652;9.250;2022-07-04T03:38:48;18.40;99.90
10010;DHT22;5044;48.652;9.250;2022-07-04T03:41:15;18.40;99.90
10010;DHT22;5044;48.652;9.250;2022-07-04T03:43:42;18.30;99.90
10010;DHT22;5044;48.652;9.250;2022-07-04T03:46:08;18.30;99.90
10010;DHT22;5044;48.652;9.250;2022-07-04T03:48:35;18.20;99.90
10010;DHT22;5044;48.652;9.250;2022-07-04T03:51:04;18.20;99.90
10010;DHT22;5044;48.652;9.250;2022-07-04T03:53:30;18.20;99.90
10010;DHT22;5044;48.652;9.250;2022-07-04T03:55:57;18.20;99.90
10010;DHT22;5044;48.652;9.250;2022-07-04T03:58:24;18.10;99.90
10010;DHT22;5044;48.652;9.250;2022-07-04T04:00:51;18.10;99.90
10010;DHT22;5044;48.652;9.250;2022-07-04T04:03:18;18.10;99.90
10010;DHT22;5044;48.652;9.250;2022-07-04T04:06:04;18.00;99.90
10010;DHT22;5044;48.652;9.250;2022-07-04T04:08:34;18.00;99.90
10010;DHT22;5044;48.652;9.250;2022-07-04T04:11:01;18.00;99.90
10010;DHT22;5044;48.652;9.250;2022-07-04T04:13:31;18.00;99.90
10010;DHT22;5044;48.652;9.250;2022-07-04T04:15:57;18.00;99.90
10010;DHT22;5044;48.652;9.250;2022-07-04T04:18:24;18.00;99.90
10010;DHT22;5044;48.652;9.250;2022-07-04T04:20:51;17.90;99.90
10010;DHT22;5044;48.652;9.250;2022-07-04T04:23:19;17.90;99.90
10010;DHT22;5044;48.652;9.250;2022-07-04T04:25:46;17.90;99.90
10010;DHT22;5044;48.652;9.250;2022-07-04T04:28:13;17.90;99.90
10010;DHT22;5044;48.652;9.250;2022-07-04T04:30:40;17.90;99.90
10010;DHT22;5044;48.652;9.250;2022-07-04T04:33:07;17.90;99.90
10010;DHT22;5044;48.652;9.250;2022-07-04T04:35:34;17.90;99.90
10010;DHT22;5044;48.652;9.250;2022-07-04T04:38:01;17.90;99.90
10010;DHT22;5044;48.652;9.250;2022-07-04T04:40:29;17.90;99.90
10010;DHT22;5044;48.652;9.250;2022-07-04T04:42:56;17.80;99.90
10010;DHT22;5044;48.652;9.250;2022-07-04T04:45:23;17.80;99.90
10010;DHT22;5044;48.652;9.250;2022-07-04T04:47:49;17.80;99.90
10010;DHT22;5044;48.652;9.250;2022-07-04T04:50:24;17.80;99.90
10010;DHT22;5044;48.652;9.250;2022-07-04T04:52:57;17.80;99.90
10010;DHT22;5044;48.652;9.250;2022-07-04T04:55:24;17.90;99.90
10010;DHT22;5044;48.652;9.250;2022-07-04T04:57:52;17.90;99.90
10010;DHT22;5044;48.652;9.250;2022-07-04T05:00:19;17.90;99.90
10010;DHT22;5044;48.652;9.250;2022-07-04T05:02:46;17.90;99.90
10010;DHT22;5044;48.652;9.250;2022-07-04T05:05:16;18.00;99.90
10010;DHT22;5044;48.652;9.250;2022-07-04T05:07:43;18.00;99.90
10010;DHT22;5044;48.652;9.250;2022-07-04T05:10:11;18.10;99.90
10010;DHT22;5044;48.652;9.250;2022-07-04T05:12:41;18.20;99.90
10010;DHT22;5044;48.652;9.250;2022-07-04T05:15:10;18.20;99.90
10010;DHT22;5044;48.652;9.250;2022-07-04T05:17:37;18.10;99.90
10010;DHT22;5044;48.652;9.250;2022-07-04T05:20:07;18.10;99.90
10010;DHT22;5044;48.652;9.250;2022-07-04T05:22:34;18.10;99.90
10010;DHT22;5044;48.652;9.250;2022-07-04T05:25:01;18.10;99.90
10010;DHT22;5044;48.652;9.250;2022-07-04T05:27:29;18.10;99.90
10010;DHT22;5044;48.652;9.250;2022-07-04T05:29:57;18.10;99.90
10010;DHT22;5044;48.652;9.250;2022-07-04T05:32:25;18.00;99.90
10010;DHT22;5044;48.652;9.250;2022-07-04T05:34:53;18.10;99.90
10010;DHT22;5044;48.652;9.250;2022-07-04T05:37:20;18.10;99.90
10010;DHT22;5044;48.652;9.250;2022-07-04T05:39:47;18.20;99.90
10010;DHT22;5044;48.652;9.250;2022-07-04T05:42:14;18.20;99.90
10010;DHT22;5044;48.652;9.250;2022-07-04T05:44:43;18.30;99.90
10010;DHT22;5044;48.652;9.250;2022-07-04T05:47:10;18.40;99.90
10010;DHT22;5044;48.652;9.250;2022-07-04T05:49:38;18.30;99.90
10010;DHT22;5044;48.652;9.250;2022-07-04T05:52:05;18.40;99.90
10010;DHT22;5044;48.652;9.250;2022-07-04T05:54:32;18.50;99.90
10010;DHT22;5044;48.652;9.250;2022-07-04T05:56:59;18.70;99.90
10010;DHT22;5044;48.652;9.250;2022-07-04T05:59:26;18.80;99.90
10010;DHT22;5044;48.652;9.250;2022-07-04T06:01:54;18.90;99.90
10010;DHT22;5044;48.652;9.250;2022-07-04T06:04:21;18.90;99.90
10010;DHT22;5044;48.652;9.250;2022-07-04T06:06:49;19.00;99.90
10010;DHT22;5044;48.652;9.250;2022-07-04T06:09:16;19.10;99.90
10010;DHT22;5044;48.652;9.250;2022-07-04T06:11:43;19.20;99.90
10010;DHT22;5044;48.652;9.250;2022-07-04T06:14:10;19.20;99.90
10010;DHT22;5044;48.652;9.250;2022-07-04T06:16:37;19.30;99.90
10010;DHT22;5044;48.652;9.250;2022-07-04T06:19:04;19.30;99.90
10010;DHT22;5044;48.652;9.250;2022-07-04T06:21:31;19.40;99.90
10010;DHT22;5044;48.652;9.250;2022-07-04T06:23:59;19.50;99.90
10010;DHT22;5044;48.652;9.250;2022-07-04T06:26:26;19.60;99.90
10010;DHT22;5044;48.652;9.250;2022-07-04T06:28:53;19.60;99.90
10010;DHT22;5044;48.652;9.250;2022-07-04T06:31:20;19.80;99.90
10010;DHT22;5044;48.652;9.250;2022-07-04T06:33:47;20.00;99.90
10010;DHT22;5044;48.652;9.250;2022-07-04T06:36:45;20.10;99.50
10010;DHT22;5044;48.652;9.250;2022-07-04T06:39:14;20.10;98.70
10010;DHT22;5044;48.652;9.250;2022-07-04T06:41:41;20.20;98.60
10010;DHT22;5044;48.652;9.250;2022-07-04T06:44:07;20.10;96.50
10010;DHT22;5044;48.652;9.250;2022-07-04T06:46:34;20.40;96.70
10010;DHT22;5044;48.652;9.250;2022-07-04T06:49:01;20.50;96.90
10010;DHT22;5044;48.652;9.250;2022-07-04T06:51:28;20.60;97.00
10010;DHT22;5044;48.652;9.250;2022-07-04T06:53:55;20.60;95.60
10010;DHT22;5044;48.652;9.250;2022-07-04T06:56:23;20.70;96.20
10010;DHT22;5044;48.652;9.250;2022-07-04T06:58:50;20.70;96.00
10010;DHT22;5044;48.652;9.250;2022-07-04T07:01:17;20.90;96.40
10010;DHT22;5044;48.652;9.250;2022-07-04T07:03:44;21.00;95.50
10010;DHT22;5044;48.652;9.250;2022-07-04T07:06:10;21.00;94.80
10010;DHT22;5044;48.652;9.250;2022-07-04T07:08:37;20.90;96.10
10010;DHT22;5044;48.652;9.250;2022-07-04T07:11:04;21.20;95.40
10010;DHT22;5044;48.652;9.250;2022-07-04T07:13:41;21.40;96.80
10010;DHT22;5044;48.652;9.250;2022-07-04T07:16:08;21.20;98.80
10010;DHT22;5044;48.652;9.250;2022-07-04T07:18:36;21.50;96.00
10010;DHT22;5044;48.652;9.250;2022-07-04T07:21:03;21.90;95.50
10010;DHT22;5044;48.652;9.250;2022-07-04T07:23:31;22.20;98.80
10010;DHT22;5044;48.652;9.250;2022-07-04T07:25:57;22.50;94.40
10010;DHT22;5044;48.652;9.250;2022-07-04T07:28:24;22.60;93.00
10010;DHT22;5044;48.652;9.250;2022-07-04T07:30:53;22.60;94.60
10010;DHT22;5044;48.652;9.250;2022-07-04T07:33:19;22.70;92.50
10010;DHT22;5044;48.652;9.250;2022-07-04T07:35:46;22.80;91.90
10010;DHT22;5044;48.652;9.250;2022-07-04T07:38:13;22.90;91.30
10010;DHT22;5044;48.652;9.250;2022-07-04T07:40:40;22.90;91.40
10010;DHT22;5044;48.652;9.250;2022-07-04T07:43:07;23.20;90.70
10010;DHT22;5044;48.652;9.250;2022-07-04T07:45:34;23.40;93.00
10010;DHT22;5044;48.652;9.250;2022-07-04T07:48:03;23.40;92.90
10010;DHT22;5044;48.652;9.250;2022-07-04T07:50:30;23.50;92.00
10010;DHT22;5044;48.652;9.250;2022-07-04T07:52:57;23.60;90.60
10010;DHT22;5044;48.652;9.250;2022-07-04T07:55:25;23.60;88.20
10010;DHT22;5044;48.652;9.250;2022-07-04T07:57:52;23.30;91.40
10010;DHT22;5044;48.652;9.250;2022-07-04T08:00:19;23.30;89.10
10010;DHT22;5044;48.652;9.250;2022-07-04T08:02:47;23.40;91.90
10010;DHT22;5044;48.652;9.250;2022-07-04T08:05:33;23.50;91.00
10010;DHT22;5044;48.652;9.250;2022-07-04T08:08:00;23.60;91.20
10010;DHT22;5044;48.652;9.250;2022-07-04T08:10:27;23.60;91.60
10010;DHT22;5044;48.652;9.250;2022-07-04T08:12:53;23.90;91.10
10010;DHT22;5044;48.652;9.250;2022-07-04T08:15:21;23.50;88.80
10010;DHT22;5044;48.652;9.250;2022-07-04T08:17:48;23.60;90.60
10010;DHT22;5044;48.652;9.250;2022-07-04T08:20:15;24.00;89.00
10010;DHT22;5044;48.652;9.250;2022-07-04T08:22:43;23.70;91.40
10010;DHT22;5044;48.652;9.250;2022-07-04T08:25:10;23.70;90.50
10010;DHT22;5044;48.652;9.250;2022-07-04T08:27:39;23.70;86.40
10010;DHT22;5044;48.652;9.250;2022-07-04T08:30:07;23.60;89.40
10010;DHT22;5044;48.652;9.250;2022-07-04T08:32:34;23.40;90.90
10010;DHT22;5044;48.652;9.250;2022-07-04T08:35:02;23.60;88.00
10010;DHT22;5044;48.652;9.250;2022-07-04T08:37:29;23.80;87.30
10010;DHT22;5044;48.652;9.250;2022-07-04T08:39:57;23.80;84.10
10010;DHT22;5044;48.652;9.250;2022-07-04T08:42:24;23.80;84.60
10010;DHT22;5044;48.652;9.250;2022-07-04T08:44:54;23.90;86.50
10010;DHT22;5044;48.652;9.250;2022-07-04T08:47:23;24.00;86.70
10010;DHT22;5044;48.652;9.250;2022-07-04T08:49:57;24.00;87.20
10010;DHT22;5044;48.652;9.250;2022-07-04T08:52:35;24.10;83.60
10010;DHT22;5044;48.652;9.250;2022-07-04T08:55:05;24.20;88.10
10010;DHT22;5044;48.652;9.250;2022-07-04T08:57:58;24.60;83.90
10010;DHT22;5044;48.652;9.250;2022-07-04T09:00:43;24.70;83.60
10010;DHT22;5044;48.652;9.250;2022-07-04T09:03:10;24.80;79.20
10010;DHT22;5044;48.652;9.250;2022-07-04T09:05:37;25.10;82.60
10010;DHT22;5044;48.652;9.250;2022-07-04T09:08:05;25.20;79.40
10010;DHT22;5044;48.652;9.250;2022-07-04T09:10:33;25.30;84.70
10010;DHT22;5044;48.652;9.250;2022-07-04T09:13:02;25.50;80.40
10010;DHT22;5044;48.652;9.250;2022-07-04T09:15:30;25.50;77.70
10010;DHT22;5044;48.652;9.250;2022-07-04T09:17:57;25.60;83.80
10010;DHT22;5044;48.652;9.250;2022-07-04T09:20:24;25.60;77.50
10010;DHT22;5044;48.652;9.250;2022-07-04T09:22:52;25.60;78.80
10010;DHT22;5044;48.652;9.250;2022-07-04T09:25:21;25.80;79.80
10010;DHT22;5044;48.652;9.250;2022-07-04T09:27:51;26.40;79.70
10010;DHT22;5044;48.652;9.250;2022-07-04T09:30:20;26.20;77.70
10010;DHT22;5044;48.652;9.250;2022-07-04T09:32:49;26.30;74.40
10010;DHT22;5044;48.652;9.250;2022-07-04T09:35:18;26.70;71.60
10010;DHT22;5044;48.652;9.250;2022-07-04T09:37:49;27.00;75.50
10010;DHT22;5044;48.652;9.250;2022-07-04T09:40:24;27.00;72.50
10010;DHT22;5044;48.652;9.250;2022-07-04T09:42:53;27.40;73.40
10010;DHT22;5044;48.652;9.250;2022-07-04T09:45:21;27.20;69.30
10010;DHT22;5044;48.652;9.250;2022-07-04T09:47:50;27.50;70.00
10010;DHT22;5044;48.652;9.250;2022-07-04T09:50:19;27.70;71.20
10010;DHT22;5044;48.652;9.250;2022-07-04T09:52:49;27.80;67.60
10010;DHT22;5044;48.652;9.250;2022-07-04T09:55:24;27.70;69.90
10010;DHT22;5044;48.652;9.250;2022-07-04T09:57:53;28.40;65.60
10010;DHT22;5044;48.652;9.250;2022-07-04T10:00:23;28.20;66.70
10010;DHT22;5044;48.652;9.250;2022-07-04T10:02:51;29.00;67.60
10010;DHT22;5044;48.652;9.250;2022-07-04T10:05:23;28.70;69.70
10010;DHT22;5044;48.652;9.250;2022-07-04T10:07:50;28.70;63.20
10010;DHT22;5044;48.652;9.250;2022-07-04T10:10:28;29.10;66.90
10010;DHT22;5044;48.652;9.250;2022-07-04T10:12:59;29.80;61.40
10010;DHT22;5044;48.652;9.250;2022-07-04T10:15:26;29.80;64.70
10010;DHT22;5044;48.652;9.250;2022-07-04T10:17:53;30.20;60.20
10010;DHT22;5044;48.652;9.250;2022-07-04T10:20:20;30.40;58.80
10010;DHT22;5044;48.652;9.250;2022-07-04T10:22:48;30.50;58.10
10010;DHT22;5044;48.652;9.250;2022-07-04T10:25:15;30.30;56.30
10010;DHT22;5044;48.652;9.250;2022-07-04T10:27:42;29.80;56.90
10010;DHT22;5044;48.652;9.250;2022-07-04T10:30:17;30.20;60.90
10010;DHT22;5044;48.652;9.250;2022-07-04T10:32:47;30.50;58.90
10010;DHT22;5044;48.652;9.250;2022-07-04T10:35:16;30.70;58.10
10010;DHT22;5044;48.652;9.250;2022-07-04T10:40:39;30.50;52.60
10010;DHT22;5044;48.652;9.250;2022-07-04T10:46:25;31.10;54.50
10010;DHT22;5044;48.652;9.250;2022-07-04T10:48:54;32.20;53.50
10010;DHT22;5044;48.652;9.250;2022-07-04T10:51:42;31.90;46.70
10010;DHT22;5044;48.652;9.250;2022-07-04T10:54:12;31.30;48.70
10010;DHT22;5044;48.652;9.250;2022-07-04T10:56:48;31.10;50.50
10010;DHT22;5044;48.652;9.250;2022-07-04T10:59:20;31.50;49.30
10010;DHT22;5044;48.652;9.250;2022-07-04T11:02:20;31.30;50.80
10010;DHT22;5044;48.652;9.250;2022-07-04T11:04:51;32.20;51.30
10010;DHT22;5044;48.652;9.250;2022-07-04T11:07:20;32.50;51.00
10010;DHT22;5044;48.652;9.250;2022-07-04T11:10:20;32.70;48.30
10010;DHT22;5044;48.652;9.250;2022-07-04T11:13:08;33.10;48.20
10010;DHT22;5044;48.652;9.250;2022-07-04T11:16:03;32.70;44.00
10010;DHT22;5044;48.652;9.250;2022-07-04T11:18:40;32.70;46.80
10010;DHT22;5044;48.652;9.250;2022-07-04T11:21:21;32.70;47.40
10010;DHT22;5044;48.652;9.250;2022-07-04T11:23:55;32.40;45.80
10010;DHT22;5044;48.652;9.250;2022-07-04T11:26:24;32.10;44.70
10010;DHT22;5044;48.652;9.250;2022-07-04T11:28:51;32.30;48.70
10010;DHT22;5044;48.652;9.250;2022-07-04T11:31:18;33.00;46.70
10010;DHT22;5044;48.652;9.250;2022-07-04T11:33:47;32.60;45.10
10010;DHT22;5044;48.652;9.250;2022-07-04T11:36:16;32.60;45.40
10010;DHT22;5044;48.652;9.250;2022-07-04T11:38:51;33.30;46.30
10010;DHT22;5044;48.652;9.250;2022-07-04T11:41:21;33.00;46.00
10010;DHT22;5044;48.652;9.250;2022-07-04T11:44:07;32.80;45.00
10010;DHT22;5044;48.652;9.250;2022-07-04T11:47:02;32.90;45.20
10010;DHT22;5044;48.652;9.250;2022-07-04T11:49:30;33.30;46.10
10010;DHT22;5044;48.652;9.250;2022-07-04T11:51:58;33.20;43.30
10010;DHT22;5044;48.652;9.250;2022-07-04T11:54:25;34.20;45.70
10010;DHT22;5044;48.652;9.250;2022-07-04T11:56:54;34.00;44.80
10010;DHT22;5044;48.652;9.250;2022-07-04T11:59:34;33.90;44.20
10010;DHT22;5044;48.652;9.250;2022-07-04T12:02:13;33.20;43.30
10010;DHT22;5044;48.652;9.250;2022-07-04T12:04:44;33.10;44.80
10010;DHT22;5044;48.652;9.250;2022-07-04T12:07:12;33.10;44.00
10010;DHT22;5044;48.652;9.250;2022-07-04T12:09:40;32.60;44.70
10010;DHT22;5044;48.652;9.250;2022-07-04T12:12:08;32.70;45.60
10010;DHT22;5044;48.652;9.250;2022-07-04T12:14:35;32.80;44.00
10010;DHT22;5044;48.652;9.250;2022-07-04T12:17:14;32.50;43.30
10010;DHT22;5044;48.652;9.250;2022-07-04T12:19:54;33.20;46.50
10010;DHT22;5044;48.652;9.250;2022-07-04T12:22:37;34.10;46.60
10010;DHT22;5044;48.652;9.250;2022-07-04T12:25:06;34.10;44.80
10010;DHT22;5044;48.652;9.250;2022-07-04T12:27:34;34.20;44.40
10010;DHT22;5044;48.652;9.250;2022-07-04T12:30:03;33.60;44.00
10010;DHT22;5044;48.652;9.250;2022-07-04T12:32:52;32.90;45.80
10010;DHT22;5044;48.652;9.250;2022-07-04T12:35:43;33.10;44.90
10010;DHT22;5044;48.652;9.250;2022-07-04T12:38:11;33.90;46.90
10010;DHT22;5044;48.652;9.250;2022-07-04T12:40:51;33.80;44.80
10010;DHT22;5044;48.652;9.250;2022-07-04T12:43:19;33.70;43.90
10010;DHT22;5044;48.652;9.250;2022-07-04T12:45:47;33.60;45.50
10010;DHT22;5044;48.652;9.250;2022-07-04T12:48:18;33.80;43.10
10010;DHT22;5044;48.652;9.250;2022-07-04T12:50:47;33.70;44.50
10010;DHT22;5044;48.652;9.250;2022-07-04T12:53:15;33.70;44.20
10010;DHT22;5044;48.652;9.250;2022-07-04T12:55:42;33.80;45.20
10010;DHT22;5044;48.652;9.250;2022-07-04T12:58:10;35.10;45.40
10010;DHT22;5044;48.652;9.250;2022-07-04T13:00:38;35.30;44.10
10010;DHT22;5044;48.652;9.250;2022-07-04T13:03:05;34.80;42.20
10010;DHT22;5044;48.652;9.250;2022-07-04T13:05:33;35.60;44.10
10010;DHT22;5044;48.652;9.250;2022-07-04T13:08:02;35.70;42.20
10010;DHT22;5044;48.652;9.250;2022-07-04T13:10:29;35.10;42.50
10010;DHT22;5044;48.652;9.250;2022-07-04T13:12:58;34.50;42.30
10010;DHT22;5044;48.652;9.250;2022-07-04T13:15:24;34.30;42.90
10010;DHT22;5044;48.652;9.250;2022-07-04T13:17:51;34.70;44.40
10010;DHT22;5044;48.652;9.250;2022-07-04T13:20:18;35.20;42.90
10010;DHT22;5044;48.652;9.250;2022-07-04T13:22:48;33.90;42.10
10010;DHT22;5044;48.652;9.250;2022-07-04T13:25:16;32.50;42.50
10010;DHT22;5044;48.652;9.250;2022-07-04T13:27:43;33.50;46.10
10010;DHT22;5044;48.652;9.250;2022-07-04T13:30:13;34.60;44.00
10010;DHT22;5044;48.652;9.250;2022-07-04T13:32:40;34.10;42.70
10010;DHT22;5044;48.652;9.250;2022-07-04T13:35:08;33.40;43.30
10010;DHT22;5044;48.652;9.250;2022-07-04T13:37:35;34.00;44.60
10010;DHT22;5044;48.652;9.250;2022-07-04T13:40:02;34.70;43.50
10010;DHT22;5044;48.652;9.250;2022-07-04T13:42:30;35.30;43.30
10010;DHT22;5044;48.652;9.250;2022-07-04T13:45:15;35.20;43.80
10010;DHT22;5044;48.652;9.250;2022-07-04T13:47:43;34.30;42.50
10010;DHT22;5044;48.652;9.250;2022-07-04T13:50:11;33.90;42.50
10010;DHT22;5044;48.652;9.250;2022-07-04T13:52:37;33.70;42.80
10010;DHT22;5044;48.652;9.250;2022-07-04T13:55:05;33.80;43.40
10010;DHT22;5044;48.652;9.250;2022-07-04T13:57:33;33.40;43.10
10010;DHT22;5044;48.652;9.250;2022-07-04T14:00:00;32.90;43.20
10010;DHT22;5044;48.652;9.250;2022-07-04T14:02:27;32.80;44.70
10010;DHT22;5044;48.652;9.250;2022-07-04T14:04:54;32.70;43.90
10010;DHT22;5044;48.652;9.250;2022-07-04T14:07:21;32.40;44.50
10010;DHT22;5044;48.652;9.250;2022-07-04T14:09:49;32.70;44.60
10010;DHT22;5044;48.652;9.250;2022-07-04T14:12:16;33.20;45.30
10010;DHT22;5044;48.652;9.250;2022-07-04T14:14:44;33.70;45.20
10010;DHT22;5044;48.652;9.250;2022-07-04T14:17:11;33.70;44.20
10010;DHT22;5044;48.652;9.250;2022-07-04T14:19:38;33.50;43.90
10010;DHT22;5044;48.652;9.250;2022-07-04T14:22:05;33.50;42.70
10010;DHT22;5044;48.652;9.250;2022-07-04T14:24:32;32.90;43.30
10010;DHT22;5044;48.652;9.250;2022-07-04T14:26:59;32.80;42.60
10010;DHT22;5044;48.652;9.250;2022-07-04T14:29:26;32.50;44.50
10010;DHT22;5044;48.652;9.250;2022-07-04T14:31:57;32.90;44.40
10010;DHT22;5044;48.652;9.250;2022-07-04T14:34:28;33.70;44.80
10010;DHT22;5044;48.652;9.250;2022-07-04T14:36:55;34.40;43.80
10010;DHT22;5044;48.652;9.250;2022-07-04T14:39:23;33.90;42.40
10010;DHT22;5044;48.652;9.250;2022-07-04T14:41:50;33.50;42.30
10010;DHT22;5044;48.652;9.250;2022-07-04T14:44:18;32.50;41.70
10010;DHT22;5044;48.652;9.250;2022-07-04T14:46:45;32.40;43.50
10010;DHT22;5044;48.652;9.250;2022-07-04T14:49:21;32.70;45.50
10010;DHT22;5044;48.652;9.250;2022-07-04T14:51:50;32.60;46.70
10010;DHT22;5044;48.652;9.250;2022-07-04T14:54:18;32.50;44.80
10010;DHT22;5044;48.652;9.250;2022-07-04T14:56:45;32.20;44.90
10010;DHT22;5044;48.652;9.250;2022-07-04T14:59:15;31.90;45.10
10010;DHT22;5044;48.652;9.250;2022-07-04T15:01:42;32.20;46.10
10010;DHT22;5044;48.652;9.250;2022-07-04T15:04:09;32.90;45.90
10010;DHT22;5044;48.652;9.250;2022-07-04T15:06:37;33.20;46.10
10010;DHT22;5044;48.652;9.250;2022-07-04T15:09:04;33.80;44.60
10010;DHT22;5044;48.652;9.250;2022-07-04T15:11:32;33.60;44.00
10010;DHT22;5044;48.652;9.250;2022-07-04T15:14:04;33.50;44.30
10010;DHT22;5044;48.652;9.250;2022-07-04T15:16:33;32.60;44.00
10010;DHT22;5044;48.652;9.250;2022-07-04T15:19:08;33.20;45.80
10010;DHT22;5044;48.652;9.250;2022-07-04T15:21:43;33.70;44.60
10010;DHT22;5044;48.652;9.250;2022-07-04T15:24:28;33.10;43.50
10010;DHT22;5044;48.652;9.250;2022-07-04T15:27:00;31.90;45.20
10010;DHT22;5044;48.652;9.250;2022-07-04T15:29:36;31.60;46.90
10010;DHT22;5044;48.652;9.250;2022-07-04T15:32:04;31.70;47.10
10010;DHT22;5044;48.652;9.250;2022-07-04T15:34:31;31.60;47.80
10010;DHT22;5044;48.652;9.250;2022-07-04T15:36:59;30.90;47.20
10010;DHT22;5044;48.652;9.250;2022-07-04T15:39:26;30.50;49.50
10010;DHT22;5044;48.652;9.250;2022-07-04T15:41:53;30.90;50.00
10010;DHT22;5044;48.652;9.250;2022-07-04T15:44:20;31.00;49.90
10010;DHT22;5044;48.652;9.250;2022-07-04T15:46:48;31.00;49.20
10010;DHT22;5044;48.652;9.250;2022-07-04T15:49:32;31.10;49.30
10010;DHT22;5044;48.652;9.250;2022-07-04T15:52:00;31.20;52.20
10010;DHT22;5044;48.652;9.250;2022-07-04T15:54:27;30.90;49.90
10010;DHT22;5044;48.652;9.250;2022-07-04T15:56:54;30.40;51.20
10010;DHT22;5044;48.652;9.250;2022-07-04T15:59:22;30.40;51.40
10010;DHT22;5044;48.652;9.250;2022-07-04T16:01:49;30.80;53.80
10010;DHT22;5044;48.652;9.250;2022-07-04T16:04:20;30.60;50.10